createdAt,value
2018-10-18T00:00:04.345Z,11.26
2018-10-18T00:01:14.518Z,11.31
2018-10-18T00:02:24.466Z,11.3
2018-10-18T00:03:34.848Z,11.31
2018-10-18T00:04:44.540Z,11.27
2018-10-18T00:05:54.607Z,11.25
2018-10-18T00:07:04.716Z,11.33
2018-10-18T00:08:14.386Z,11.38
2018-10-18T00:09:24.410Z,11.37
2018-10-18T00:10:34.099Z,11.34
2018-10-18T00:11:43.801Z,11.35
2018-10-18T00:12:53.239Z,11.43
2018-10-18T00:14:03.412Z,11.38
2018-10-18T00:15:13.703Z,11.48
2018-10-18T00:16:23.396Z,11.41
2018-10-18T00:17:33.349Z,11.4
2018-10-18T00:18:43.301Z,11.34
2018-10-18T00:19:53.285Z,11.38
2018-10-18T00:21:03.283Z,11.38
2018-10-18T00:22:12.984Z,11.38
2018-10-18T00:23:22.941Z,11.4
2018-10-18T00:24:32.889Z,11.4
2018-10-18T00:25:42.828Z,11.41
2018-10-18T00:26:52.770Z,11.4
2018-10-18T00:28:02.464Z,11.43
2018-10-18T00:29:12.163Z,11.43
2018-10-18T00:30:22.617Z,11.51
2018-10-18T00:31:32.552Z,11.45
2018-10-18T00:32:42.252Z,11.48
2018-10-18T00:33:51.694Z,11.45
2018-10-18T00:35:01.394Z,11.48
2018-10-18T00:36:11.798Z,11.48
2018-10-18T00:37:22.288Z,11.51
2018-10-18T00:38:31.987Z,11.51
2018-10-18T00:39:41.942Z,11.45
2018-10-18T00:40:51.623Z,11.48
2018-10-18T00:42:01.730Z,11.45
2018-10-18T00:43:11.661Z,11.52
2018-10-18T00:44:22.023Z,11.56
2018-10-18T00:45:31.460Z,11.55
2018-10-18T00:46:41.163Z,11.59
2018-10-18T00:47:51.115Z,11.55
2018-10-18T00:49:00.552Z,11.55
2018-10-18T00:50:11.162Z,11.51
2018-10-18T00:51:21.566Z,11.56
2018-10-18T00:52:31.520Z,11.55
2018-10-18T00:53:41.454Z,11.44
2018-10-18T00:54:51.424Z,11.45
2018-10-18T00:56:01.330Z,11.53
2018-10-18T00:57:11.067Z,11.48
2018-10-18T00:58:21.025Z,11.53
2018-10-18T00:59:30.730Z,11.55
2018-10-18T01:00:40.679Z,11.52
2018-10-18T01:01:50.620Z,11.58
2018-10-18T01:03:00.650Z,11.55
2018-10-18T01:04:10.620Z,11.52
2018-10-18T01:05:20.596Z,11.48
2018-10-18T01:06:30.292Z,11.52
2018-10-18T01:07:40.253Z,11.51
2018-10-18T01:08:50.263Z,11.41
2018-10-18T01:10:00.218Z,11.44
2018-10-18T01:11:09.931Z,11.44
2018-10-18T01:12:20.196Z,11.41
2018-10-18T01:13:30.755Z,11.51
2018-10-18T01:14:40.702Z,11.52
2018-10-18T01:15:50.395Z,11.52
2018-10-18T01:16:59.827Z,11.59
2018-10-18T01:18:09.774Z,11.56
2018-10-18T01:19:20.137Z,11.51
2018-10-18T01:20:30.095Z,11.53
2018-10-18T01:21:39.801Z,11.55
2018-10-18T01:22:49.774Z,11.52
2018-10-18T01:23:59.800Z,11.59
2018-10-18T01:25:09.774Z,11.55
2018-10-18T01:26:20.048Z,11.56
2018-10-18T01:27:29.736Z,11.59
2018-10-18T01:28:39.677Z,11.56
2018-10-18T01:29:49.621Z,11.58
2018-10-18T01:30:59.644Z,11.52
2018-10-18T01:32:09.925Z,11.58
2018-10-18T01:33:20.230Z,11.52
2018-10-18T01:34:30.223Z,11.52
2018-10-18T01:35:39.924Z,11.41
2018-10-18T01:36:49.610Z,11.45
2018-10-18T01:37:59.069Z,11.44
2018-10-18T01:39:09.230Z,11.48
2018-10-18T01:40:18.945Z,11.52
2018-10-18T01:41:28.648Z,11.52
2018-10-18T01:42:38.598Z,11.49
2018-10-18T01:43:48.547Z,11.43
2018-10-18T01:44:58.535Z,11.44
2018-10-18T01:46:07.980Z,11.41
2018-10-18T01:47:17.693Z,11.48
2018-10-18T01:48:27.652Z,11.44
2018-10-18T01:49:37.618Z,11.48
2018-10-18T01:50:47.570Z,11.48
2018-10-18T01:51:57.516Z,11.41
2018-10-18T01:53:07.210Z,11.38
2018-10-18T01:54:17.576Z,11.41
2018-10-18T01:55:27.109Z,11.22
2018-10-18T01:56:36.790Z,11.31
2018-10-18T01:57:46.749Z,11.27
2018-10-18T01:58:56.689Z,11.33
2018-10-18T02:00:06.914Z,11.3
2018-10-18T02:01:17.129Z,11.27
2018-10-18T02:02:27.078Z,11.27
2018-10-18T02:03:37.048Z,11.18
2018-10-18T02:04:46.751Z,11.23
2018-10-18T02:05:56.782Z,11.23
2018-10-18T02:07:06.632Z,11.15
2018-10-18T02:08:17.131Z,11.22
2018-10-18T02:09:27.163Z,11.16
2018-10-18T02:10:36.854Z,11.2
2018-10-18T02:11:46.539Z,11.16
2018-10-18T02:12:56.250Z,11.16
2018-10-18T02:14:06.198Z,11.19
2018-10-18T02:15:15.897Z,11.12
2018-10-18T02:16:25.864Z,11.08
2018-10-18T02:17:35.818Z,11.1
2018-10-18T02:18:45.248Z,11.08
2018-10-18T02:19:55.217Z,11.07
2018-10-18T02:21:05.162Z,11.1
2018-10-18T02:22:14.857Z,11.07
2018-10-18T02:23:24.821Z,11.02
2018-10-18T02:24:34.548Z,11.04
2018-10-18T02:25:44.508Z,11.1
2018-10-18T02:26:54.190Z,11.04
2018-10-18T02:28:04.139Z,11.08
2018-10-18T02:29:13.835Z,11.08
2018-10-18T02:30:24.368Z,11.02
2018-10-18T02:31:34.334Z,11.04
2018-10-18T02:32:44.304Z,11.07
2018-10-18T02:33:54.030Z,10.94
2018-10-18T02:35:03.991Z,10.98
2018-10-18T02:36:14.275Z,11.04
2018-10-18T02:37:24.557Z,10.98
2018-10-18T02:38:34.518Z,10.97
2018-10-18T02:39:44.506Z,10.98
2018-10-18T02:40:54.461Z,10.98
2018-10-18T02:42:04.680Z,10.98
2018-10-18T02:43:14.882Z,10.92
2018-10-18T02:44:24.583Z,10.89
2018-10-18T02:45:34.544Z,10.89
2018-10-18T02:46:44.249Z,10.94
2018-10-18T02:47:54.223Z,10.95
2018-10-18T02:49:04.212Z,10.98
2018-10-18T02:50:13.908Z,10.9
2018-10-18T02:51:23.855Z,10.86
2018-10-18T02:52:33.804Z,10.87
2018-10-18T02:53:43.754Z,10.87
2018-10-18T02:54:53.716Z,10.86
2018-10-18T02:56:03.664Z,10.82
2018-10-18T02:57:13.611Z,10.77
2018-10-18T02:58:23.548Z,10.75
2018-10-18T02:59:33.234Z,10.75
2018-10-18T03:00:43.208Z,10.79
2018-10-18T03:01:52.918Z,10.9
2018-10-18T03:03:02.893Z,10.82
2018-10-18T03:04:12.869Z,10.75
2018-10-18T03:05:22.798Z,10.82
2018-10-18T03:06:32.746Z,10.71
2018-10-18T03:07:42.438Z,10.8
2018-10-18T03:08:52.388Z,10.77
2018-10-18T03:10:02.344Z,10.82
2018-10-18T03:11:12.300Z,10.89
2018-10-18T03:12:22.854Z,10.8
2018-10-18T03:13:32.830Z,10.86
2018-10-18T03:14:42.774Z,10.84
2018-10-18T03:15:52.878Z,10.86
2018-10-18T03:17:03.133Z,10.79
2018-10-18T03:18:13.168Z,10.82
2018-10-18T03:19:23.536Z,10.84
2018-10-18T03:20:33.228Z,10.87
2018-10-18T03:21:42.664Z,10.76
2018-10-18T03:22:52.616Z,10.86
2018-10-18T03:24:02.666Z,10.79
2018-10-18T03:25:12.603Z,10.71
2018-10-18T03:26:22.519Z,10.75
2018-10-18T03:27:32.482Z,10.69
2018-10-18T03:28:42.443Z,10.69
2018-10-18T03:29:52.410Z,10.65
2018-10-18T03:31:02.299Z,10.68
2018-10-18T03:32:12.024Z,10.64
2018-10-18T03:33:21.986Z,10.55
2018-10-18T03:34:31.694Z,10.65
2018-10-18T03:35:41.383Z,10.61
2018-10-18T03:36:51.327Z,10.62
2018-10-18T03:38:01.289Z,10.53
2018-10-18T03:39:11.228Z,10.55
2018-10-18T03:40:21.180Z,10.55
2018-10-18T03:41:31.385Z,10.53
2018-10-18T03:42:41.732Z,10.59
2018-10-18T03:43:51.425Z,10.57
2018-10-18T03:45:01.133Z,10.49
2018-10-18T03:46:11.079Z,10.48
2018-10-18T03:47:21.030Z,10.55
2018-10-18T03:48:30.977Z,10.51
2018-10-18T03:49:40.681Z,10.58
2018-10-18T03:50:50.119Z,10.49
2018-10-18T03:52:00.068Z,10.55
2018-10-18T03:53:09.507Z,10.57
2018-10-18T03:54:19.591Z,10.49
2018-10-18T03:55:29.644Z,10.53
2018-10-18T03:56:39.598Z,10.61
2018-10-18T03:57:49.281Z,10.51
2018-10-18T03:58:59.257Z,10.53
2018-10-18T04:00:09.452Z,10.65
2018-10-18T04:01:19.670Z,10.58
2018-10-18T04:02:29.124Z,10.59
2018-10-18T04:03:39.070Z,10.53
2018-10-18T04:04:49.025Z,10.59
2018-10-18T04:05:58.569Z,10.65
2018-10-18T04:07:08.749Z,10.62
2018-10-18T04:08:18.438Z,10.55
2018-10-18T04:09:28.411Z,10.55
2018-10-18T04:10:38.360Z,10.59
2018-10-18T04:11:48.315Z,10.53
2018-10-18T04:12:58.671Z,10.57
2018-10-18T04:14:08.459Z,10.61
2018-10-18T04:15:18.414Z,10.57
2018-10-18T04:16:28.376Z,10.55
2018-10-18T04:17:38.348Z,10.49
2018-10-18T04:18:48.108Z,10.42
2018-10-18T04:19:57.816Z,10.46
2018-10-18T04:21:07.783Z,10.41
2018-10-18T04:22:17.720Z,10.43
2018-10-18T04:23:27.684Z,10.41
2018-10-18T04:24:37.639Z,10.43
2018-10-18T04:25:47.694Z,10.45
2018-10-18T04:26:57.402Z,10.45
2018-10-18T04:28:07.078Z,10.45
2018-10-18T04:29:17.027Z,10.42
2018-10-18T04:30:26.854Z,10.42
2018-10-18T04:31:36.813Z,10.41
2018-10-18T04:32:46.761Z,10.39
2018-10-18T04:33:56.744Z,10.38
2018-10-18T04:35:06.706Z,10.42
2018-10-18T04:36:16.777Z,10.45
2018-10-18T04:37:27.377Z,10.42
2018-10-18T04:38:37.675Z,10.39
2018-10-18T04:39:47.622Z,10.34
2018-10-18T04:40:57.558Z,10.39
2018-10-18T04:42:07.752Z,10.42
2018-10-18T04:43:17.887Z,10.42
2018-10-18T04:44:27.331Z,10.39
2018-10-18T04:45:37.284Z,10.34
2018-10-18T04:46:46.964Z,10.46
2018-10-18T04:47:57.386Z,10.38
2018-10-18T04:49:08.224Z,10.36
2018-10-18T04:50:18.211Z,10.38
2018-10-18T04:51:27.639Z,10.23
2018-10-18T04:52:37.600Z,10.18
2018-10-18T04:53:47.558Z,10.06
2018-10-18T04:54:57.344Z,10.05
2018-10-18T04:56:07.041Z,9.91
2018-10-18T04:57:16.739Z,9.84
2018-10-18T04:58:26.686Z,9.77
2018-10-18T04:59:36.625Z,9.7
2018-10-18T05:00:46.580Z,9.7
2018-10-18T05:01:56.579Z,9.69
2018-10-18T05:03:06.542Z,9.72
2018-10-18T05:04:16.507Z,9.67
2018-10-18T05:05:26.206Z,9.7
2018-10-18T05:06:36.158Z,9.77
2018-10-18T05:07:46.117Z,9.66
2018-10-18T05:08:55.804Z,9.74
2018-10-18T05:10:05.492Z,9.67
2018-10-18T05:11:15.382Z,9.63
2018-10-18T05:12:25.758Z,9.62
2018-10-18T05:13:35.208Z,9.59
2018-10-18T05:14:45.171Z,9.58
2018-10-18T05:15:54.863Z,9.56
2018-10-18T05:17:04.553Z,9.47
2018-10-18T05:18:14.240Z,9.4
2018-10-18T05:19:23.950Z,9.42
2018-10-18T05:20:33.960Z,9.44
2018-10-18T05:21:43.944Z,9.47
2018-10-18T05:22:53.877Z,9.42
2018-10-18T05:24:03.863Z,9.48
2018-10-18T05:25:13.490Z,9.45
2018-10-18T05:26:23.851Z,9.47
2018-10-18T05:27:33.797Z,9.45
2018-10-18T05:28:43.745Z,9.62
2018-10-18T05:29:53.695Z,9.62
2018-10-18T05:31:03.831Z,9.56
2018-10-18T05:32:14.096Z,9.62
2018-10-18T05:33:24.036Z,9.69
2018-10-18T05:34:33.989Z,9.69
2018-10-18T05:35:43.681Z,9.72
2018-10-18T05:36:53.377Z,9.73
2018-10-18T05:38:03.330Z,9.8
2018-10-18T05:39:13.343Z,9.73
2018-10-18T05:40:23.049Z,9.7
2018-10-18T05:41:33.016Z,9.7
2018-10-18T05:42:43.041Z,9.69
2018-10-18T05:43:52.987Z,9.73
2018-10-18T05:45:02.685Z,9.72
2018-10-18T05:46:12.666Z,9.67
2018-10-18T05:47:23.180Z,9.7
2018-10-18T05:48:33.172Z,9.82
2018-10-18T05:49:43.137Z,9.72
2018-10-18T05:50:53.087Z,9.69
2018-10-18T05:52:02.775Z,9.72
2018-10-18T05:53:13.204Z,9.69
2018-10-18T05:54:23.018Z,9.72
2018-10-18T05:55:32.729Z,9.82
2018-10-18T05:56:42.700Z,9.72
2018-10-18T05:57:52.664Z,9.73
2018-10-18T05:59:02.641Z,9.72
2018-10-18T06:00:12.878Z,9.69
2018-10-18T06:01:23.461Z,9.69
2018-10-18T06:02:33.157Z,9.73
2018-10-18T06:03:43.121Z,9.72
2018-10-18T06:04:53.081Z,9.73
2018-10-18T06:06:02.763Z,9.72
2018-10-18T06:07:13.064Z,9.66
2018-10-18T06:08:23.630Z,9.62
2018-10-18T06:09:33.699Z,9.62
2018-10-18T06:10:43.935Z,9.55
2018-10-18T06:11:53.631Z,9.58
2018-10-18T06:13:03.737Z,9.67
2018-10-18T06:14:13.865Z,9.62
2018-10-18T06:15:23.569Z,9.56
2018-10-18T06:16:33.539Z,9.58
2018-10-18T06:17:42.973Z,9.52
2018-10-18T06:18:52.669Z,9.45
2018-10-18T06:20:02.821Z,9.42
2018-10-18T06:21:12.781Z,9.33
2018-10-18T06:22:22.748Z,9.42
2018-10-18T06:23:32.936Z,9.37
2018-10-18T06:24:42.889Z,9.39
2018-10-18T06:25:52.578Z,9.37
2018-10-18T06:27:02.528Z,9.39
2018-10-18T06:28:12.234Z,9.44
2018-10-18T06:29:22.334Z,9.44
2018-10-18T06:30:32.325Z,9.51
2018-10-18T06:31:42.274Z,9.62
2018-10-18T06:32:52.235Z,9.64
2018-10-18T06:34:02.392Z,9.67
2018-10-18T06:35:12.231Z,9.7
2018-10-18T06:36:22.329Z,9.77
2018-10-18T06:37:32.646Z,9.81
2018-10-18T06:38:42.785Z,9.84
2018-10-18T06:39:52.227Z,9.85
2018-10-18T06:41:02.330Z,9.88
2018-10-18T06:42:12.163Z,9.85
2018-10-18T06:43:22.289Z,10
2018-10-18T06:44:32.270Z,9.97
2018-10-18T06:45:42.216Z,9.99
2018-10-18T06:46:52.450Z,10.05
2018-10-18T06:48:03.361Z,10.05
2018-10-18T06:49:13.928Z,10.07
2018-10-18T06:50:23.719Z,10.17
2018-10-18T06:51:33.468Z,10.24
2018-10-18T06:52:43.433Z,10.27
2018-10-18T06:53:53.385Z,10.2
2018-10-18T06:55:03.566Z,10.33
2018-10-18T06:56:13.786Z,10.36
2018-10-18T06:57:23.762Z,10.39
2018-10-18T06:58:33.714Z,10.51
2018-10-18T06:59:43.803Z,10.51
2018-10-18T07:00:53.868Z,10.61
2018-10-18T07:02:03.569Z,10.62
2018-10-18T07:03:13.529Z,10.68
2018-10-18T07:04:23.282Z,10.77
2018-10-18T07:05:33.245Z,10.75
2018-10-18T07:06:42.948Z,10.83
2018-10-18T07:07:52.708Z,10.86
2018-10-18T07:09:02.761Z,10.89
2018-10-18T07:10:12.831Z,10.89
2018-10-18T07:11:22.553Z,11
2018-10-18T07:12:32.508Z,10.95
2018-10-18T07:13:42.216Z,11.07
2018-10-18T07:14:52.190Z,11.04
2018-10-18T07:16:01.732Z,11.13
2018-10-18T07:17:11.696Z,11.13
2018-10-18T07:18:21.903Z,11.23
2018-10-18T07:19:31.917Z,11.27
2018-10-18T07:20:41.870Z,11.26
2018-10-18T07:21:52.033Z,11.43
2018-10-18T07:23:02.029Z,11.45
2018-10-18T07:24:12.149Z,11.53
2018-10-18T07:25:22.806Z,11.63
2018-10-18T07:26:33.191Z,11.68
2018-10-18T07:27:42.887Z,11.77
2018-10-18T07:28:52.394Z,11.88
2018-10-18T07:30:02.659Z,12.02
2018-10-18T07:31:12.890Z,12
2018-10-18T07:32:22.617Z,12.2
2018-10-18T07:33:32.561Z,12.35
2018-10-18T07:34:42.515Z,12.5
2018-10-18T07:35:52.349Z,12.66
2018-10-18T07:37:02.430Z,12.8
2018-10-18T07:38:12.673Z,12.86
2018-10-18T07:39:22.683Z,12.98
2018-10-18T07:40:32.373Z,13.12
2018-10-18T07:41:42.357Z,13.3
2018-10-18T07:42:52.352Z,13.37
2018-10-18T07:44:02.055Z,13.52
2018-10-18T07:45:11.495Z,13.62
2018-10-18T07:46:21.560Z,13.67
2018-10-18T07:47:31.552Z,13.73
2018-10-18T07:48:41.279Z,13.73
2018-10-18T07:49:51.232Z,13.89
2018-10-18T07:51:01.201Z,13.86
2018-10-18T07:52:11.191Z,13.86
2018-10-18T07:53:21.286Z,13.94
2018-10-18T07:54:31.443Z,13.97
2018-10-18T07:55:40.892Z,14.03
2018-10-18T07:56:50.600Z,14.07
2018-10-18T07:58:00.574Z,13.95
2018-10-18T07:59:10.564Z,13.94
2018-10-18T08:00:21.206Z,13.94
2018-10-18T08:01:31.428Z,13.89
2018-10-18T08:02:41.404Z,13.89
2018-10-18T08:03:51.372Z,13.76
2018-10-18T08:05:01.326Z,13.65
2018-10-18T08:06:11.296Z,13.64
2018-10-18T08:07:21.486Z,13.64
2018-10-18T08:08:31.755Z,13.6
2018-10-18T08:09:41.733Z,13.6
2018-10-18T08:10:51.751Z,13.55
2018-10-18T08:12:01.275Z,13.55
2018-10-18T08:13:11.564Z,13.67
2018-10-18T08:14:21.611Z,13.62
2018-10-18T08:15:31.070Z,13.73
2018-10-18T08:16:40.833Z,13.86
2018-10-18T08:17:51.152Z,13.95
2018-10-18T08:19:00.960Z,14.19
2018-10-18T08:20:11.152Z,14.3
2018-10-18T08:21:21.103Z,14.43
2018-10-18T08:22:30.946Z,14.66
2018-10-18T08:23:41.168Z,14.71
2018-10-18T08:24:51.142Z,14.87
2018-10-18T08:26:00.866Z,15.05
2018-10-18T08:27:10.564Z,15.17
2018-10-18T08:28:20.542Z,15.37
2018-10-18T08:29:30.487Z,15.47
2018-10-18T08:30:40.452Z,15.65
2018-10-18T08:31:50.539Z,15.7
2018-10-18T08:33:00.488Z,16.05
2018-10-18T08:34:10.482Z,16.21
2018-10-18T08:35:20.240Z,16.31
2018-10-18T08:36:30.204Z,16.36
2018-10-18T08:37:40.534Z,16.4
2018-10-18T08:38:51.176Z,16.51
2018-10-18T08:40:01.146Z,16.76
2018-10-18T08:41:11.111Z,16.89
2018-10-18T08:42:21.082Z,16.99
2018-10-18T08:43:31.068Z,17.16
2018-10-18T08:44:41.235Z,17.2
2018-10-18T08:45:50.669Z,17.52
2018-10-18T08:47:00.631Z,17.66
2018-10-18T08:48:10.590Z,17.63
2018-10-18T08:49:20.961Z,18.03
2018-10-18T08:50:30.959Z,18.28
2018-10-18T08:51:40.918Z,18.42
2018-10-18T08:52:50.892Z,18.68
2018-10-18T08:54:00.870Z,19.05
2018-10-18T08:55:10.560Z,19.24
2018-10-18T08:56:20.875Z,19.35
2018-10-18T08:57:30.849Z,19.38
2018-10-18T08:58:40.842Z,19.64
2018-10-18T08:59:50.568Z,19.64
2018-10-18T09:01:00.384Z,19.74
2018-10-18T09:02:10.593Z,20.14
2018-10-18T09:03:20.573Z,20.56
2018-10-18T09:04:29.826Z,20.63
2018-10-18T09:05:39.788Z,20.26
2018-10-18T09:06:49.756Z,20.3
2018-10-18T09:07:59.813Z,20.3
2018-10-18T09:09:10.107Z,20.55
2018-10-18T09:10:20.362Z,20.86
2018-10-18T09:11:30.419Z,20.92
2018-10-18T09:12:40.433Z,20.71
2018-10-18T09:13:50.409Z,20.64
2018-10-18T09:15:00.121Z,20.64
2018-10-18T09:16:10.332Z,20.56
2018-10-18T09:17:20.232Z,20.59
2018-10-18T09:18:30.190Z,20.64
2018-10-18T09:19:40.133Z,20.83
2018-10-18T09:20:49.845Z,21.03
2018-10-18T09:21:59.552Z,21.25
2018-10-18T09:23:09.284Z,21.14
2018-10-18T09:24:19.232Z,20.9
2018-10-18T09:25:29.204Z,20.92
2018-10-18T09:26:39.188Z,20.93
2018-10-18T09:27:48.897Z,20.9
2018-10-18T09:28:58.603Z,21.07
2018-10-18T09:30:08.681Z,21.11
2018-10-18T09:31:19.165Z,21.17
2018-10-18T09:32:29.254Z,21.13
2018-10-18T09:33:38.983Z,20.98
2018-10-18T09:34:48.968Z,20.64
2018-10-18T09:35:58.699Z,20.55
2018-10-18T09:37:08.646Z,20.55
2018-10-18T09:38:19.262Z,20.32
2018-10-18T09:39:29.503Z,20.6
2018-10-18T09:40:39.216Z,20.71
2018-10-18T09:41:49.179Z,20.66
2018-10-18T09:42:58.937Z,20.59
2018-10-18T09:44:09.185Z,20.59
2018-10-18T09:45:19.369Z,20.64
2018-10-18T09:46:29.379Z,20.59
2018-10-18T09:47:38.870Z,20.66
2018-10-18T09:48:48.837Z,20.6
2018-10-18T09:49:58.880Z,20.64
2018-10-18T09:51:08.867Z,20.75
2018-10-18T09:52:18.311Z,20.77
2018-10-18T09:53:28.317Z,20.9
2018-10-18T09:54:38.358Z,21.03
2018-10-18T09:55:48.790Z,21.01
2018-10-18T09:56:59.012Z,20.75
2018-10-18T09:58:08.992Z,20.52
2018-10-18T09:59:18.759Z,20.64
2018-10-18T10:00:28.731Z,20.4
2018-10-18T10:01:38.694Z,20.42
2018-10-18T10:02:48.669Z,20.34
2018-10-18T10:03:58.658Z,20.33
2018-10-18T10:05:08.551Z,20.55
2018-10-18T10:06:18.583Z,20.93
2018-10-18T10:07:28.577Z,21.15
2018-10-18T10:08:38.284Z,21.07
2018-10-18T10:09:47.997Z,21.15
2018-10-18T10:10:57.973Z,21.29
2018-10-18T10:12:07.938Z,21.15
2018-10-18T10:13:18.067Z,20.96
2018-10-18T10:14:28.607Z,21.03
2018-10-18T10:15:38.583Z,21.26
2018-10-18T10:16:48.055Z,21.41
2018-10-18T10:17:58.093Z,21.43
2018-10-18T10:19:08.276Z,21.32
2018-10-18T10:20:18.127Z,21.32
2018-10-18T10:21:28.089Z,21.44
2018-10-18T10:22:38.062Z,21.44
2018-10-18T10:23:47.785Z,21.29
2018-10-18T10:24:57.904Z,21.13
2018-10-18T10:26:08.075Z,20.98
2018-10-18T10:27:17.783Z,20.66
2018-10-18T10:28:27.583Z,20.66
2018-10-18T10:29:37.735Z,20.5
2018-10-18T10:30:47.752Z,20.64
2018-10-18T10:31:57.771Z,20.96
2018-10-18T10:33:07.987Z,21.29
2018-10-18T10:34:18.251Z,21.54
2018-10-18T10:35:28.386Z,21.63
2018-10-18T10:36:38.597Z,21.63
2018-10-18T10:37:48.303Z,21.44
2018-10-18T10:38:58.062Z,21.32
2018-10-18T10:40:08.501Z,21.3
2018-10-18T10:41:19.137Z,21.26
2018-10-18T10:42:28.848Z,21.3
2018-10-18T10:43:38.792Z,21.26
2018-10-18T10:44:48.852Z,21.3
2018-10-18T10:45:58.972Z,21.43
2018-10-18T10:47:09.153Z,21.37
2018-10-18T10:48:19.483Z,21.05
2018-10-18T10:49:29.584Z,20.7
2018-10-18T10:50:39.559Z,20.48
2018-10-18T10:51:49.293Z,20.18
2018-10-18T10:52:59.015Z,19.84
2018-10-18T10:54:09.232Z,19.77
2018-10-18T10:55:19.841Z,19.82
2018-10-18T10:56:29.794Z,20.14
2018-10-18T10:57:39.518Z,20.55
2018-10-18T10:58:49.309Z,20.8
2018-10-18T10:59:59.598Z,20.63
2018-10-18T11:01:09.788Z,20.48
2018-10-18T11:02:20.303Z,20.64
2018-10-18T11:03:30.273Z,20.7
2018-10-18T11:04:40.257Z,20.77
2018-10-18T11:05:49.712Z,20.42
2018-10-18T11:06:59.793Z,20.19
2018-10-18T11:08:10.202Z,20.04
2018-10-18T11:09:21.158Z,19.97
2018-10-18T11:10:30.804Z,20
2018-10-18T11:11:40.820Z,20.27
2018-10-18T11:12:50.913Z,20.12
2018-10-18T11:14:01.003Z,19.94
2018-10-18T11:15:11.073Z,20.03
2018-10-18T11:16:20.853Z,19.77
2018-10-18T11:17:30.580Z,19.48
2018-10-18T11:18:40.289Z,19.16
2018-10-18T11:19:50.263Z,18.91
2018-10-18T11:21:00.446Z,18.78
2018-10-18T11:22:10.448Z,18.71
2018-10-18T11:23:20.420Z,18.88
2018-10-18T11:24:30.152Z,18.81
2018-10-18T11:25:40.242Z,18.55
2018-10-18T11:26:49.959Z,18.55
2018-10-18T11:28:00.016Z,18.41
2018-10-18T11:29:09.722Z,18.33
2018-10-18T11:30:20.113Z,18.37
2018-10-18T11:31:30.260Z,18.39
2018-10-18T11:32:40.230Z,18.31
2018-10-18T11:33:50.208Z,18.21
2018-10-18T11:34:59.928Z,18.26
2018-10-18T11:36:10.110Z,18.15
2018-10-18T11:37:20.492Z,18.02
2018-10-18T11:38:30.483Z,18
2018-10-18T11:39:40.505Z,17.93
2018-10-18T11:40:49.971Z,17.8
2018-10-18T11:41:59.817Z,17.73
2018-10-18T11:43:09.765Z,17.71
2018-10-18T11:44:20.346Z,17.72
2018-10-18T11:45:30.195Z,17.52
2018-10-18T11:46:40.189Z,17.2
2018-10-18T11:47:49.918Z,16.98
2018-10-18T11:48:59.955Z,16.8
2018-10-18T11:50:10.118Z,16.77
2018-10-18T11:51:20.095Z,16.57
2018-10-18T11:52:30.226Z,16.55
2018-10-18T11:53:39.389Z,16.64
2018-10-18T11:54:49.400Z,16.64
2018-10-18T11:55:59.478Z,16.91
2018-10-18T11:57:09.386Z,17.16
2018-10-18T11:58:19.363Z,17.2
2018-10-18T11:59:29.053Z,17.3
2018-10-18T12:00:38.758Z,17.49
2018-10-18T12:01:48.445Z,17.71
2018-10-18T12:02:58.412Z,18
2018-10-18T12:04:07.865Z,18.24
2018-10-18T12:05:18.276Z,18.48
2018-10-18T12:06:28.106Z,18.42
2018-10-18T12:07:38.041Z,18.37
2018-10-18T12:08:47.995Z,18.37
2018-10-18T12:09:57.663Z,18.58
2018-10-18T12:11:07.437Z,18.96
2018-10-18T12:12:17.797Z,19.19
2018-10-18T12:13:27.785Z,19.2
2018-10-18T12:14:37.773Z,19.29
2018-10-18T12:15:47.780Z,19.05
2018-10-18T12:16:57.607Z,19
2018-10-18T12:18:07.821Z,19.09
2018-10-18T12:19:18.171Z,19.17
2018-10-18T12:20:28.424Z,19.16
2018-10-18T12:21:38.427Z,19.39
2018-10-18T12:22:48.159Z,19.47
2018-10-18T12:23:57.890Z,19.38
2018-10-18T12:25:07.866Z,19.71
2018-10-18T12:26:18.342Z,19.52
2018-10-18T12:27:27.916Z,19.35
2018-10-18T12:28:37.625Z,19.35
2018-10-18T12:29:47.369Z,19.32
2018-10-18T12:30:57.103Z,19.55
2018-10-18T12:32:07.342Z,19.34
2018-10-18T12:33:17.729Z,19.04
2018-10-18T12:34:27.681Z,18.73
2018-10-18T12:35:37.662Z,18.61
2018-10-18T12:36:47.135Z,18.53
2018-10-18T12:37:57.227Z,18.52
2018-10-18T12:39:07.518Z,18.85
2018-10-18T12:40:18.024Z,18.89
2018-10-18T12:41:28.201Z,19.11
2018-10-18T12:42:38.583Z,19.34
2018-10-18T12:43:48.560Z,19.49
2018-10-18T12:44:58.285Z,19.39
2018-10-18T12:46:08.000Z,19.32
2018-10-18T12:47:17.967Z,19.45
2018-10-18T12:48:28.219Z,19.39
2018-10-18T12:49:38.417Z,19.56
2018-10-18T12:50:48.426Z,19.55
2018-10-18T12:51:58.396Z,19.6
2018-10-18T12:53:08.369Z,19.59
2018-10-18T12:54:18.859Z,19.57
2018-10-18T12:55:28.980Z,19.41
2018-10-18T12:56:38.958Z,19.71
2018-10-18T12:57:48.654Z,19.89
2018-10-18T12:58:58.600Z,20.1
2018-10-18T13:00:08.701Z,20.27
2018-10-18T13:01:18.991Z,20.46
2018-10-18T13:02:28.935Z,20.52
2018-10-18T13:03:39.189Z,20.55
2018-10-18T13:04:49.152Z,20.3
2018-10-18T13:05:59.001Z,20.3
2018-10-18T13:07:08.539Z,20.07
2018-10-18T13:08:18.973Z,19.96
2018-10-18T13:09:28.675Z,19.7
2018-10-18T13:10:38.757Z,19.44
2018-10-18T13:11:48.717Z,19.11
2018-10-18T13:12:58.736Z,18.48
2018-10-18T13:14:08.985Z,18.33
2018-10-18T13:15:19.331Z,18.27
2018-10-18T13:16:29.290Z,18.13
2018-10-18T13:17:38.486Z,17.76
2018-10-18T13:18:48.443Z,17.56
2018-10-18T13:19:58.482Z,17.69
2018-10-18T13:21:08.630Z,17.59
2018-10-18T13:22:18.598Z,17.52
2018-10-18T13:23:28.046Z,17.28
2018-10-18T13:24:38.248Z,17.17
2018-10-18T13:25:48.195Z,16.95
2018-10-18T13:26:58.172Z,16.98
2018-10-18T13:28:07.861Z,17.1
2018-10-18T13:29:17.847Z,17.16
2018-10-18T13:30:27.823Z,17.07
2018-10-18T13:31:37.535Z,17.16
2018-10-18T13:32:47.508Z,17.13
2018-10-18T13:33:57.621Z,17.1
2018-10-18T13:35:07.495Z,17.12
2018-10-18T13:36:17.673Z,17.07
2018-10-18T13:37:27.736Z,16.79
2018-10-18T13:38:37.710Z,16.49
2018-10-18T13:39:47.417Z,16.36
2018-10-18T13:40:57.637Z,16.21
2018-10-18T13:42:07.529Z,16.21
2018-10-18T13:43:17.439Z,16.13
2018-10-18T13:44:27.405Z,16
2018-10-18T13:45:37.122Z,16.06
2018-10-18T13:46:47.094Z,15.87
2018-10-18T13:47:56.831Z,15.83
2018-10-18T13:49:06.890Z,15.85
2018-10-18T13:50:17.345Z,15.91
2018-10-18T13:51:27.342Z,15.69
2018-10-18T13:52:37.062Z,15.44
2018-10-18T13:53:47.042Z,15.41
2018-10-18T13:54:56.756Z,15.45
2018-10-18T13:56:06.944Z,15.26
2018-10-18T13:57:17.105Z,15.22
2018-10-18T13:58:27.080Z,15.19
2018-10-18T13:59:37.612Z,15.12
2018-10-18T14:00:47.491Z,15.11
2018-10-18T14:01:57.328Z,15.04
2018-10-18T14:03:07.527Z,15.02
2018-10-18T14:04:17.488Z,15.02
2018-10-18T14:05:27.594Z,14.97
2018-10-18T14:06:37.791Z,14.99
2018-10-18T14:07:47.910Z,15.11
2018-10-18T14:08:58.157Z,15.1
2018-10-18T14:10:08.118Z,15.1
2018-10-18T14:11:18.228Z,15.11
2018-10-18T14:12:28.306Z,15
2018-10-18T14:13:38.268Z,14.97
2018-10-18T14:14:48.227Z,15.02
2018-10-18T14:15:58.185Z,14.99
2018-10-18T14:17:08.617Z,15.02
2018-10-18T14:18:19.091Z,15.02
2018-10-18T14:19:28.270Z,14.94
2018-10-18T14:20:38.229Z,14.82
2018-10-18T14:21:48.205Z,14.96
2018-10-18T14:22:58.013Z,15.05
2018-10-18T14:24:07.808Z,15.05
2018-10-18T14:25:17.799Z,15
2018-10-18T14:26:27.766Z,14.99
2018-10-18T14:27:37.718Z,15.12
2018-10-18T14:28:47.690Z,15.12
2018-10-18T14:29:57.416Z,15.08
2018-10-18T14:31:07.203Z,15.12
2018-10-18T14:32:17.746Z,15.12
2018-10-18T14:33:27.902Z,15.1
2018-10-18T14:34:37.608Z,15.12
2018-10-18T14:35:47.561Z,15.15
2018-10-18T14:36:57.003Z,15.14
2018-10-18T14:38:07.349Z,15.25
2018-10-18T14:39:17.306Z,15.29
2018-10-18T14:40:27.009Z,15.3
2018-10-18T14:41:36.966Z,15.35
2018-10-18T14:42:46.955Z,15.25
2018-10-18T14:43:56.644Z,15.22
2018-10-18T14:45:07.063Z,15.32
2018-10-18T14:46:17.496Z,15.33
2018-10-18T14:47:28.113Z,15.35
2018-10-18T14:48:38.339Z,15.45
2018-10-18T14:49:48.276Z,15.39
2018-10-18T14:50:58.344Z,15.48
2018-10-18T14:52:08.264Z,15.39
2018-10-18T14:53:18.848Z,15.45
2018-10-18T14:54:28.552Z,15.43
2018-10-18T14:55:38.507Z,15.37
2018-10-18T14:56:48.517Z,15.37
2018-10-18T14:57:58.221Z,15.27
2018-10-18T14:59:07.762Z,15.32
2018-10-18T15:00:18.041Z,15.29
2018-10-18T15:01:27.485Z,15.22
2018-10-18T15:02:37.455Z,15.17
2018-10-18T15:03:47.434Z,15.26
2018-10-18T15:04:57.480Z,15.18
2018-10-18T15:06:07.616Z,15.22
2018-10-18T15:07:17.570Z,15.26